Flight Track Log - Related Links

Times and Time Zones

All times are in EDT time to prevent confusion due to time zone crossing. See the N236WR flight status page for this flight to view local times or setup timezone preferences in your user account.

Time Position Orientation Groundspeed Altitude Reporting Facility
EDT Latitude Longitude Course Direction KTS MPH feet Rate Location/Type
Tue 01:18:18 PM 42.8944 -85.3728 257° West 177 204 4,000  Level Chicago Center
Tue 01:19:20 PM 42.8456 -85.3706 178° South 221 254 4,900 1,403 Climbing Chicago Center
Tue 01:20:22 PM 42.8322 -85.4444 256° West 208 239 6,900 2,081 Climbing Chicago Center
Tue 01:21:24 PM 42.8167 -85.5267 256° West 191 220 9,200 1,500 Climbing Chicago Center
Tue 01:22:00 PM 42.8320 -85.6915 257° West  Level FlightAware Approximate
Tue 01:22:26 PM 42.8028 -85.6000 256° West 194 223 10,000  Level Chicago Center
Tue 01:23:00 PM 42.8271 -85.7209 257° West  Level FlightAware Approximate
Tue 01:23:28 PM 42.7850 -85.6928 255° West 239 275 10,000  Level Chicago Center
Tue 01:24:30 PM 42.7656 -85.7869 254° West 256 295 10,000  Level Chicago Center
Tue 01:25:33 PM 42.7467 -85.8839 255° West 262 302 10,000  Level Chicago Center
Tue 01:26:35 PM 42.7278 -85.9800 255° West 262 302 10,000  Level Chicago Center
Tue 01:27:37 PM 42.7083 -86.0764 255° West 263 303 10,000  Level Chicago Center
Tue 01:28:39 PM 42.6856 -86.1917 255° West 262 302 10,000  Level Chicago Center
Tue 01:29:41 PM 42.6664 -86.2867 255° West 261 300 10,000  Level Chicago Center
Tue 01:30:43 PM 42.6469 -86.3808 254° West 260 299 10,000  Level Chicago Center
Tue 01:31:46 PM 42.6264 -86.4769 254° West 263 303 10,000  Level Chicago Center
Tue 01:32:47 PM 42.6078 -86.5719 255° West 262 302 10,000  Level Chicago Center
Tue 01:33:49 PM 42.5883 -86.6683 255° West 264 304 10,000 -290 Level Chicago Center
Tue 01:34:51 PM 42.5686 -86.7642 254° West 265 305 9,400 -823 Descending Chicago Center
Tue 01:35:53 PM 42.5450 -86.8800 255° West 265 305 8,300 -1,016 Descending Chicago Center
Tue 01:36:55 PM 42.5264 -86.9728 255° West 257 296 7,300 -968 Descending Chicago Center
Tue 01:37:57 PM 42.5067 -87.0617 253° West 248 285 6,300 -919 Descending Chicago Center
Tue 01:38:59 PM 42.4858 -87.1497 252° West 246 283 5,400 -919 Descending Chicago Center
Tue 01:40:01 PM 42.4553 -87.2325 243° Southwest 246 283 4,400 -919 Descending Chicago Center
Tue 01:41:03 PM 42.4286 -87.3156 247° West 243 280 3,500 -677 Descending Chicago Center
Tue 01:42:05 PM 42.3964 -87.4197 247° West 247 284 3,000 -201 Descending Chicago Center
Tue 01:43:32 PM 42.3606 -87.5317 247° West 253 291 3,000  Level Chicago Center
Tue 01:44:34 PM 42.3281 -87.6264 245° Southwest 234 269 3,000  Level Chicago Center
Tue 01:45:36 PM 42.3042 -87.7011 247° West 229 264 3,000  Level Chicago Center
Tue 01:46:38 PM 42.2944 -87.7714 259° West 210 242 3,000  Level Chicago Center
Tue 01:47:40 PM 42.2889 -87.8414 264° West 196 226 3,000  Level Chicago Center
Tue 01:48:42 PM 42.2833 -87.9092 264° West 190 219 3,000 -145 Level Chicago Center
Tue 01:49:44 PM 42.2511 -87.9658 232° Southwest 192 221 2,700 -339 Descending Chicago Center
Tue 01:50:46 PM 42.2075 -87.9533 168° South 173 199 2,300 -288 Descending Chicago Center
Tue 01:51:49 PM 42.1719 -87.9342 158° South 166 191 2,100 -190 Descending Chicago Center
Tue 01:54:00 PM 42.1143 -87.9015 166° South  Level Estimated

Login

Don't have an account? Register now (free) for customized features, flight alerts, and more!